createdAt,value
2022-10-01T00:00:15.597Z,53709.84
2022-10-01T00:02:44.134Z,53725.75
2022-10-01T00:05:14.347Z,53739.66
2022-10-01T00:07:44.678Z,53723.75
2022-10-01T00:10:15.270Z,53757.56
2022-10-01T00:12:47.218Z,53767.50
2022-10-01T00:15:19.735Z,53813.22
2022-10-01T00:17:48.136Z,53849.03
2022-10-01T00:20:18.238Z,53862.94
2022-10-01T00:22:47.459Z,53916.63
2022-10-01T00:25:15.741Z,53922.59
2022-10-01T00:27:46.840Z,53956.38
2022-10-01T00:30:15.303Z,53976.28
2022-10-01T00:32:43.637Z,54004.09
2022-10-01T00:35:12.556Z,53992.19
2022-10-01T00:37:42.833Z,54051.81
2022-10-01T00:40:11.865Z,54079.66
2022-10-01T00:42:40.943Z,54123.41
2022-10-01T00:45:12.260Z,54137.34
2022-10-01T00:47:44.937Z,54171.13
2022-10-01T00:50:17.319Z,54234.75
2022-10-01T00:52:52.181Z,54232.78
2022-10-01T00:55:24.824Z,54234.75
2022-10-01T00:57:53.846Z,54246.69
2022-10-01T01:00:23.394Z,54246.69
2022-10-01T01:02:52.336Z,54246.69
2022-10-01T01:05:24.490Z,54266.59
2022-10-01T01:07:55.146Z,54266.59
2022-10-01T01:10:31.131Z,54282.50
2022-10-01T01:13:13.261Z,54252.66
2022-10-01T01:15:47.934Z,54258.63
2022-10-01T01:18:23.041Z,54252.66
2022-10-01T01:21:21.417Z,54254.66
2022-10-01T01:24:23.382Z,54206.94
2022-10-01T01:27:06.357Z,54268.56
2022-10-01T01:29:43.287Z,54276.53
2022-10-01T01:32:15.241Z,54242.72
2022-10-01T01:34:49.798Z,54260.63
2022-10-01T01:37:27.150Z,54274.53
2022-10-01T01:39:58.413Z,54278.50
2022-10-01T01:42:31.206Z,54340.16
2022-10-01T01:45:04.010Z,54350.09
2022-10-01T01:47:34.706Z,54346.13
2022-10-01T01:50:06.164Z,54377.94
2022-10-01T01:52:35.262Z,54441.56
2022-10-01T01:55:07.426Z,54455.50
2022-10-01T01:57:39.193Z,54495.28
2022-10-01T02:00:11.670Z,54523.09
2022-10-01T02:02:42.037Z,54576.81
2022-10-01T02:05:16.105Z,54620.56
2022-10-01T02:08:05.485Z,54718.00
2022-10-01T02:10:46.305Z,54775.69
2022-10-01T02:13:26.175Z,54835.34
2022-10-01T02:16:04.479Z,54940.75
2022-10-01T02:18:41.633Z,55014.34
2022-10-01T02:21:16.479Z,55111.81
2022-10-01T02:23:50.587Z,55155.56
2022-10-01T02:26:24.529Z,55302.75
2022-10-01T02:28:56.549Z,55364.41
2022-10-01T02:31:27.259Z,55495.69
2022-10-01T02:33:57.926Z,55513.59
2022-10-01T02:36:28.931Z,55535.50
2022-10-01T02:38:58.806Z,55718.50
2022-10-01T02:41:32.841Z,55802.06
2022-10-01T02:44:05.041Z,55897.56
2022-10-01T02:46:44.928Z,55973.16
2022-10-01T02:49:15.142Z,56104.47
2022-10-01T02:51:53.452Z,56176.09
2022-10-01T02:54:29.095Z,56301.44
2022-10-01T02:57:18.828Z,56430.78
2022-10-01T02:59:47.877Z,56562.09
2022-10-01T03:02:21.069Z,56759.09
2022-10-01T03:04:49.630Z,56938.22
2022-10-01T03:07:18.791Z,56995.91
2022-10-01T03:09:47.080Z,57171.06
2022-10-01T03:12:17.225Z,57378.03
2022-10-01T03:14:45.881Z,57425.81
2022-10-01T03:17:15.122Z,57565.13
2022-10-01T03:19:44.924Z,57772.16
2022-10-01T03:22:15.800Z,57991.13
2022-10-01T03:24:44.347Z,58007.03
2022-10-01T03:27:14.111Z,58150.38
2022-10-01T03:29:42.552Z,58329.56
2022-10-01T03:32:11.748Z,58377.34
2022-10-01T03:34:40.215Z,58243.94
2022-10-01T03:37:09.949Z,58232.00
2022-10-01T03:39:38.248Z,58186.22
2022-10-01T03:42:07.220Z,58245.94
2022-10-01T03:44:35.607Z,58393.25
2022-10-01T03:47:04.128Z,58377.34
2022-10-01T03:49:32.425Z,58170.28
2022-10-01T03:52:01.121Z,58216.06
2022-10-01T03:54:33.575Z,58186.22
2022-10-01T03:57:02.022Z,58303.69
2022-10-01T03:59:30.527Z,58190.19
2022-10-01T04:01:59.031Z,58156.34
2022-10-01T04:04:29.007Z,57963.25
2022-10-01T04:06:57.424Z,57831.88
2022-10-01T04:09:26.059Z,57744.28
2022-10-01T04:11:56.087Z,57750.25
2022-10-01T04:14:24.436Z,57760.22
2022-10-01T04:16:52.820Z,57493.47
2022-10-01T04:19:21.393Z,57314.34
2022-10-01T04:21:49.975Z,57302.41
2022-10-01T04:24:18.424Z,57123.28
2022-10-01T04:26:46.803Z,56936.22
2022-10-01T04:29:18.187Z,56739.19
2022-10-01T04:31:46.550Z,56701.41
2022-10-01T04:34:18.892Z,56796.91
2022-10-01T04:36:47.253Z,56848.66
2022-10-01T04:39:15.738Z,56908.34
2022-10-01T04:41:44.151Z,57097.41
2022-10-01T04:44:12.541Z,57208.88
2022-10-01T04:46:42.641Z,57352.16
2022-10-01T04:49:11.187Z,57467.59
2022-10-01T04:51:39.385Z,57616.88
2022-10-01T04:54:07.742Z,57730.34
2022-10-01T04:56:36.173Z,57879.66
2022-10-01T04:59:04.448Z,57893.56
2022-10-01T05:01:33.247Z,57955.28
2022-10-01T05:04:03.365Z,58019.00
2022-10-01T05:06:31.668Z,58162.31
2022-10-01T05:09:00.188Z,58206.13
2022-10-01T05:11:28.563Z,58377.34
2022-10-01T05:13:56.873Z,58524.66
2022-10-01T05:16:25.391Z,58835.28
2022-10-01T05:18:54.832Z,59044.38
2022-10-01T05:21:24.660Z,59434.69
2022-10-01T05:23:55.123Z,59639.81
2022-10-01T05:26:23.890Z,60010.28
2022-10-01T05:28:53.619Z,60291.16
2022-10-01T05:31:22.221Z,60231.41
2022-10-01T05:33:50.754Z,60599.94
2022-10-01T05:36:19.325Z,61026.28
2022-10-01T05:38:53.324Z,61329.16
2022-10-01T05:41:21.898Z,61679.88
2022-10-01T05:43:51.428Z,61827.38
2022-10-01T05:46:19.953Z,62441.25
2022-10-01T05:48:51.366Z,62680.44
2022-10-01T05:51:22.833Z,63138.97
2022-10-01T05:53:55.101Z,63204.78
2022-10-01T05:56:24.347Z,63617.50
2022-10-01T05:58:52.896Z,63625.47
2022-10-01T06:01:22.275Z,63814.91
2022-10-01T06:03:52.400Z,64181.84
2022-10-01T06:06:23.185Z,64247.66
2022-10-01T06:08:53.472Z,64459.06
2022-10-01T06:11:24.413Z,64425.16
2022-10-01T06:13:53.350Z,64259.63
2022-10-01T06:16:22.055Z,64147.94
2022-10-01T06:18:52.090Z,64343.41
2022-10-01T06:21:22.863Z,64708.38
2022-10-01T06:23:53.668Z,64798.16
2022-10-01T06:26:22.958Z,65566.19
2022-10-01T06:28:51.822Z,65751.75
2022-10-01T06:31:21.473Z,65967.25
2022-10-01T06:33:49.895Z,65941.28
2022-10-01T06:36:18.308Z,66577.88
2022-10-01T06:38:50.134Z,66997.00
2022-10-01T06:41:20.046Z,67845.41
2022-10-01T06:43:50.511Z,68342.56
2022-10-01T06:46:18.821Z,68793.84
2022-10-01T06:48:47.169Z,68664.03
2022-10-01T06:51:15.444Z,68458.38
2022-10-01T06:53:42.706Z,68252.69
2022-10-01T06:56:11.096Z,68863.75
2022-10-01T06:58:42.019Z,69271.16
2022-10-01T07:01:11.163Z,68354.53
2022-10-01T07:03:39.802Z,68765.88
2022-10-01T07:06:11.211Z,68953.63
2022-10-01T07:08:39.727Z,69580.75
2022-10-01T07:11:08.316Z,68384.47
2022-10-01T07:13:36.672Z,68977.56
2022-10-01T07:16:07.276Z,69079.44
2022-10-01T07:18:35.701Z,69524.84
2022-10-01T07:21:04.446Z,69546.81
2022-10-01T07:23:32.918Z,69500.88
2022-10-01T07:26:01.226Z,69514.84
2022-10-01T07:28:29.927Z,70054.19
2022-10-01T07:31:01.096Z,70645.59
2022-10-01T07:33:31.143Z,71163.13
2022-10-01T07:36:02.505Z,70295.94
2022-10-01T07:38:33.455Z,71898.63
2022-10-01T07:41:03.717Z,71331.00
2022-10-01T07:43:33.217Z,69470.91
2022-10-01T07:46:02.112Z,69612.72
2022-10-01T07:48:32.062Z,70259.97
2022-10-01T07:51:00.530Z,69251.19
2022-10-01T07:53:29.149Z,69373.03
2022-10-01T07:55:58.056Z,70823.44
2022-10-01T07:58:26.717Z,68755.91
2022-10-01T08:00:58.718Z,69201.25
2022-10-01T08:03:27.629Z,69017.53
2022-10-01T08:05:57.370Z,67981.16
2022-10-01T08:08:25.775Z,66502.03
2022-10-01T08:10:54.352Z,67112.78
2022-10-01T08:13:25.056Z,66262.56
2022-10-01T08:15:54.945Z,65851.50
2022-10-01T08:18:24.023Z,65237.00
2022-10-01T08:20:52.637Z,63856.78
2022-10-01T08:23:24.615Z,64981.66
2022-10-01T08:25:52.996Z,64004.34
2022-10-01T08:28:21.729Z,63800.94
2022-10-01T08:30:50.280Z,62732.28
2022-10-01T08:33:18.677Z,62156.22
2022-10-01T08:35:47.131Z,61522.47
2022-10-01T08:38:16.255Z,61361.06
2022-10-01T08:40:48.923Z,60179.59
2022-10-01T08:43:30.711Z,60623.84
2022-10-01T08:46:03.263Z,60862.91
2022-10-01T08:48:41.392Z,60864.91
2022-10-01T08:51:14.603Z,61247.47
2022-10-01T08:53:47.238Z,61086.06
2022-10-01T08:56:23.144Z,61227.53
2022-10-01T08:58:58.145Z,60631.81
2022-10-01T09:01:28.195Z,60093.94
2022-10-01T09:03:57.272Z,60402.72
2022-10-01T09:06:28.118Z,60221.44
2022-10-01T09:09:19.939Z,60305.09
2022-10-01T09:12:06.197Z,60627.81
2022-10-01T09:14:49.828Z,60874.88
2022-10-01T09:17:30.960Z,61108.00
2022-10-01T09:20:12.772Z,61249.47
2022-10-01T09:22:43.053Z,60970.50
2022-10-01T09:25:16.838Z,61743.66
2022-10-01T09:27:47.957Z,61108.00
2022-10-01T09:30:20.701Z,60659.69
2022-10-01T09:32:54.779Z,59225.56
2022-10-01T09:35:36.793Z,59900.72
2022-10-01T09:38:14.011Z,60528.22
2022-10-01T09:40:51.135Z,60715.47
2022-10-01T09:43:22.071Z,59942.56
2022-10-01T09:45:51.273Z,60169.63
2022-10-01T09:48:28.976Z,60476.41
2022-10-01T09:51:04.137Z,59161.84
2022-10-01T09:53:38.203Z,58751.66
2022-10-01T09:56:13.482Z,58851.22
2022-10-01T09:58:49.203Z,57714.44
2022-10-01T10:01:24.393Z,58234.00
2022-10-01T10:03:57.392Z,57654.72
2022-10-01T10:06:29.631Z,58454.97
2022-10-01T10:08:59.853Z,57517.38
2022-10-01T10:11:30.308Z,56753.13
2022-10-01T10:14:03.758Z,56532.25
2022-10-01T10:16:35.881Z,56058.69
2022-10-01T10:19:10.422Z,55933.38
2022-10-01T10:21:39.379Z,55627.00
2022-10-01T10:24:24.937Z,54934.78
2022-10-01T10:26:55.946Z,55213.25
2022-10-01T10:29:31.090Z,54791.59
2022-10-01T10:32:00.925Z,54531.06
2022-10-01T10:34:33.963Z,54103.53
2022-10-01T10:37:09.225Z,54043.88
2022-10-01T10:39:40.501Z,54020.00
2022-10-01T10:42:09.505Z,53948.44
2022-10-01T10:44:40.273Z,53920.59
2022-10-01T10:47:12.051Z,53962.34
2022-10-01T10:49:47.558Z,53864.94
2022-10-01T10:52:30.007Z,53894.75
2022-10-01T10:55:02.514Z,53932.53
2022-10-01T10:57:32.416Z,53858.97
2022-10-01T11:00:05.016Z,53886.78
2022-10-01T11:02:35.359Z,53932.53
2022-10-01T11:05:06.804Z,53976.28
2022-10-01T11:07:38.237Z,53968.31
2022-10-01T11:10:33.109Z,53868.91
2022-10-01T11:13:29.792Z,53735.69
2022-10-01T11:16:41.718Z,53729.72
2022-10-01T11:19:35.862Z,53711.84
2022-10-01T11:22:25.935Z,53693.94
2022-10-01T11:25:05.729Z,53686.00
2022-10-01T11:27:45.254Z,53723.75
2022-10-01T11:30:20.315Z,53695.94
2022-10-01T11:33:03.976Z,53658.16
2022-10-01T11:35:52.953Z,53709.84
2022-10-01T11:38:46.772Z,53735.69
2022-10-01T11:41:23.564Z,53713.81
2022-10-01T11:43:55.573Z,53745.63
2022-10-01T11:46:38.054Z,53721.78
2022-10-01T11:49:30.647Z,53771.47
2022-10-01T11:52:09.763Z,53761.53
2022-10-01T11:54:44.873Z,53739.66
2022-10-01T11:57:34.491Z,53771.47
2022-10-01T12:00:08.505Z,53697.91
2022-10-01T12:02:52.293Z,53682.00
2022-10-01T12:05:27.106Z,53636.28
2022-10-01T12:08:00.931Z,53618.38
2022-10-01T12:10:39.744Z,53552.78
2022-10-01T12:13:15.985Z,53562.72
2022-10-01T12:15:49.504Z,53522.97
2022-10-01T12:18:23.130Z,53550.78
2022-10-01T12:20:58.908Z,53578.63
2022-10-01T12:23:30.864Z,53562.72
2022-10-01T12:26:09.014Z,53566.69
2022-10-01T12:28:49.154Z,53542.84
2022-10-01T12:31:27.609Z,53509.03
2022-10-01T12:34:12.682Z,53532.91
2022-10-01T12:36:53.530Z,53495.13
2022-10-01T12:39:36.018Z,53534.88
2022-10-01T12:42:15.811Z,53515.00
2022-10-01T12:45:03.395Z,53487.19
2022-10-01T12:47:43.250Z,53491.16
2022-10-01T12:50:31.913Z,53528.94
2022-10-01T12:53:24.777Z,53499.09
2022-10-01T12:56:15.805Z,53491.16
2022-10-01T12:59:10.342Z,53457.34
2022-10-01T13:01:48.796Z,53497.13
2022-10-01T13:04:39.570Z,53481.22
2022-10-01T13:07:35.203Z,53493.13
2022-10-01T13:10:19.444Z,53433.50
2022-10-01T13:13:00.256Z,53377.84
2022-10-01T13:15:34.109Z,53371.88
2022-10-01T13:18:14.551Z,53363.91
2022-10-01T13:20:54.276Z,53340.06
2022-10-01T13:23:29.783Z,53344.03
2022-10-01T13:26:08.633Z,53310.25
2022-10-01T13:28:50.782Z,53300.31
2022-10-01T13:31:20.310Z,53296.31
2022-10-01T13:33:56.288Z,53284.41
2022-10-01T13:36:32.075Z,53280.41
2022-10-01T13:39:01.078Z,53336.09
2022-10-01T13:41:33.794Z,53344.03
2022-10-01T13:44:18.613Z,53320.19
2022-10-01T13:46:52.729Z,53371.88
2022-10-01T13:49:26.215Z,53389.75
2022-10-01T13:51:55.274Z,53373.84
2022-10-01T13:54:28.495Z,53385.78
2022-10-01T13:57:09.161Z,53409.63
2022-10-01T13:59:38.894Z,53403.69
2022-10-01T14:02:30.662Z,53429.53
2022-10-01T14:05:24.035Z,53419.59
2022-10-01T14:07:58.005Z,53411.63
2022-10-01T14:10:36.046Z,53403.69
2022-10-01T14:13:24.048Z,53399.69
2022-10-01T14:16:01.568Z,53419.59
2022-10-01T14:18:34.659Z,53375.84
2022-10-01T14:21:17.126Z,53377.84
2022-10-01T14:23:52.285Z,53399.69
2022-10-01T14:26:27.637Z,53419.59
2022-10-01T14:29:07.486Z,53405.66
2022-10-01T14:31:51.219Z,53399.69
2022-10-01T14:34:43.542Z,53429.53
2022-10-01T14:37:17.270Z,53443.44
2022-10-01T14:39:46.302Z,53407.66
2022-10-01T14:42:18.644Z,53423.56
2022-10-01T14:44:49.002Z,53419.59
2022-10-01T14:47:22.006Z,53433.50
2022-10-01T14:49:51.408Z,53423.56
2022-10-01T14:52:23.502Z,53409.63
2022-10-01T14:54:58.926Z,53407.66
2022-10-01T14:57:34.277Z,53419.59
2022-10-01T15:00:10.468Z,53371.88
2022-10-01T15:02:47.928Z,53352.00
2022-10-01T15:05:23.352Z,53405.66
2022-10-01T15:07:52.127Z,53381.81
2022-10-01T15:10:24.111Z,53403.69
2022-10-01T15:12:53.977Z,53395.72
2022-10-01T15:15:30.678Z,53371.88
2022-10-01T15:17:59.555Z,53403.69
2022-10-01T15:20:29.077Z,53395.72
2022-10-01T15:23:01.437Z,53352.00
2022-10-01T15:25:33.432Z,53369.88
2022-10-01T15:28:02.354Z,53403.69
2022-10-01T15:30:33.936Z,53419.59
2022-10-01T15:33:03.118Z,53363.91
2022-10-01T15:35:32.583Z,53379.81
2022-10-01T15:38:01.094Z,53379.81
2022-10-01T15:40:35.521Z,53415.59
2022-10-01T15:43:26.524Z,53371.88
2022-10-01T15:46:18.166Z,53363.91
2022-10-01T15:48:47.282Z,53391.75
2022-10-01T15:51:25.659Z,53373.84
2022-10-01T15:53:56.624Z,53389.75
2022-10-01T15:56:26.220Z,53367.91
2022-10-01T15:58:58.699Z,53411.63
2022-10-01T16:01:38.910Z,53389.75
2022-10-01T16:04:10.480Z,53393.75
2022-10-01T16:06:41.958Z,53405.66
2022-10-01T16:09:17.171Z,53379.81
2022-10-01T16:11:55.376Z,53403.69
2022-10-01T16:14:32.520Z,53399.69
2022-10-01T16:17:34.408Z,53409.63
2022-10-01T16:20:36.827Z,53413.63
2022-10-01T16:23:33.078Z,53411.63
2022-10-01T16:26:02.009Z,53433.50
2022-10-01T16:28:32.881Z,53443.44
2022-10-01T16:31:02.017Z,53409.63
2022-10-01T16:33:31.984Z,53463.31
2022-10-01T16:36:11.037Z,53387.78
2022-10-01T16:38:39.490Z,53447.41
2022-10-01T16:41:07.930Z,53425.53
2022-10-01T16:43:36.467Z,53463.31
2022-10-01T16:46:04.983Z,53445.44
2022-10-01T16:48:35.216Z,53439.47
2022-10-01T16:51:03.626Z,53473.25
2022-10-01T16:53:32.255Z,53461.31
2022-10-01T16:56:00.829Z,53465.31
2022-10-01T16:58:29.429Z,53457.34
2022-10-01T17:00:57.716Z,53461.31
2022-10-01T17:03:27.095Z,53465.31
2022-10-01T17:05:57.315Z,53413.63
2022-10-01T17:08:25.768Z,53431.50
2022-10-01T17:10:59.291Z,53479.22
2022-10-01T17:13:29.012Z,53477.22
2022-10-01T17:15:57.404Z,53511.03
2022-10-01T17:18:26.140Z,53481.22
2022-10-01T17:20:56.315Z,53499.09
2022-10-01T17:23:24.992Z,53487.19
2022-10-01T17:25:53.688Z,53479.22
2022-10-01T17:28:23.408Z,53509.03
2022-10-01T17:30:51.783Z,53536.88
2022-10-01T17:33:20.957Z,53524.94
2022-10-01T17:35:52.130Z,53518.97
2022-10-01T17:38:22.258Z,53518.97
2022-10-01T17:40:54.203Z,53499.09
2022-10-01T17:43:25.319Z,53542.84
2022-10-01T17:45:57.533Z,53536.88
2022-10-01T17:48:26.672Z,53517.00
2022-10-01T17:51:06.631Z,53499.09
2022-10-01T17:53:42.594Z,53517.00
2022-10-01T17:56:14.611Z,53530.91
2022-10-01T17:58:45.690Z,53550.78
2022-10-01T18:01:16.896Z,53536.88
2022-10-01T18:03:45.544Z,53534.88
2022-10-01T18:06:15.527Z,53542.84
2022-10-01T18:08:55.080Z,53518.97
2022-10-01T18:11:25.086Z,53552.78
2022-10-01T18:13:53.760Z,53534.88
2022-10-01T18:16:22.677Z,53566.69
2022-10-01T18:21:44.435Z,53558.75
2022-10-01T18:24:17.295Z,53578.63
2022-10-01T18:26:47.009Z,53590.56
2022-10-01T18:29:19.392Z,53558.75
2022-10-01T18:31:52.967Z,53568.69
2022-10-01T18:34:29.844Z,53590.56
2022-10-01T18:37:04.521Z,53596.53
2022-10-01T18:39:39.940Z,53582.59
2022-10-01T18:42:20.007Z,53638.28
2022-10-01T18:44:53.479Z,53618.38
2022-10-01T18:47:35.220Z,53632.31
2022-10-01T18:50:22.829Z,53628.31
2022-10-01T18:53:07.849Z,53634.28
2022-10-01T18:55:53.727Z,53650.19
2022-10-01T18:58:42.867Z,53650.19
2022-10-01T19:01:22.934Z,53660.13
2022-10-01T19:04:07.785Z,53658.16
2022-10-01T19:07:02.922Z,53687.97
2022-10-01T19:09:41.917Z,53644.22
2022-10-01T19:12:32.090Z,53648.22
2022-10-01T19:15:12.849Z,53684.00
2022-10-01T19:17:51.115Z,53691.94
2022-10-01T19:20:33.261Z,53695.94
2022-10-01T19:23:14.524Z,53664.13
2022-10-01T19:25:49.140Z,53662.13
2022-10-01T19:28:35.726Z,53691.94
2022-10-01T19:31:18.020Z,53687.97
2022-10-01T19:33:51.827Z,53701.88
2022-10-01T19:36:26.273Z,53678.03
2022-10-01T19:38:59.324Z,53717.78
2022-10-01T19:41:38.390Z,53703.88
2022-10-01T19:44:14.567Z,53727.75
2022-10-01T19:46:45.939Z,53703.88
2022-10-01T19:49:20.929Z,53731.72
2022-10-01T19:51:56.540Z,53733.69
2022-10-01T19:54:31.477Z,53701.88
2022-10-01T19:57:05.094Z,53749.59
2022-10-01T19:59:35.037Z,53731.72
2022-10-01T20:02:11.224Z,53757.56
2022-10-01T20:04:47.434Z,53761.53
2022-10-01T20:07:25.356Z,53757.56
2022-10-01T20:10:05.523Z,53769.50
2022-10-01T20:12:43.709Z,53813.22
2022-10-01T20:15:24.514Z,53813.22
2022-10-01T20:18:13.403Z,53817.22
2022-10-01T20:20:54.222Z,53807.25
2022-10-01T20:23:39.242Z,53803.28
2022-10-01T20:26:17.031Z,53819.19
2022-10-01T20:29:07.084Z,53849.03
2022-10-01T20:31:43.513Z,53872.88
2022-10-01T20:34:20.995Z,53866.91
2022-10-01T20:36:56.928Z,53894.75
2022-10-01T20:39:31.461Z,53884.81
2022-10-01T20:42:01.314Z,53918.59
2022-10-01T20:44:33.291Z,53920.59
2022-10-01T20:47:07.486Z,53950.44
2022-10-01T20:49:41.679Z,53964.34
2022-10-01T20:52:19.124Z,53956.38
2022-10-01T20:54:53.133Z,54002.13
2022-10-01T20:57:29.211Z,54008.09
2022-10-01T21:00:04.082Z,54004.09
2022-10-01T21:02:41.268Z,54043.88
2022-10-01T21:05:17.113Z,54091.59
2022-10-01T21:07:55.572Z,54115.47
2022-10-01T21:10:34.582Z,54123.41
2022-10-01T21:13:09.758Z,54115.47
2022-10-01T21:15:51.624Z,54151.25
2022-10-01T21:18:34.448Z,54177.09
2022-10-01T21:21:16.059Z,54171.13
2022-10-01T21:24:01.208Z,54210.91
2022-10-01T21:26:41.616Z,54224.81
2022-10-01T21:29:26.708Z,54200.97
2022-10-01T21:32:09.739Z,54278.50
2022-10-01T21:34:52.604Z,54274.53
2022-10-01T21:37:32.940Z,54262.59
2022-10-01T21:40:13.902Z,54330.22
2022-10-01T21:42:53.623Z,54298.41
2022-10-01T21:45:32.169Z,54310.34
2022-10-01T21:48:17.573Z,54336.19
2022-10-01T21:50:54.204Z,54371.97
2022-10-01T21:54:01.375Z,54322.25
2022-10-01T21:56:55.047Z,54373.97
2022-10-01T21:59:49.900Z,54379.94
2022-10-01T22:02:33.834Z,54389.88
2022-10-01T22:05:10.660Z,54377.94
2022-10-01T22:07:48.245Z,54383.91
2022-10-01T22:10:20.874Z,54395.84
2022-10-01T22:12:54.389Z,54395.84
2022-10-01T22:15:27.742Z,54409.75
2022-10-01T22:17:57.944Z,54409.75
2022-10-01T22:20:33.037Z,54405.78
2022-10-01T22:23:08.277Z,54421.69
2022-10-01T22:25:41.595Z,54419.69
2022-10-01T22:28:18.817Z,54415.72
2022-10-01T22:30:49.383Z,54383.91
2022-10-01T22:33:24.455Z,54397.81
2022-10-01T22:36:02.360Z,54429.66
2022-10-01T22:38:37.451Z,54443.56
2022-10-01T22:41:12.144Z,54413.72
2022-10-01T22:43:41.950Z,54449.53
2022-10-01T22:46:40.507Z,54479.34
2022-10-01T22:49:22.816Z,54473.41
2022-10-01T22:52:02.554Z,54423.69
2022-10-01T22:54:43.333Z,54441.56
2022-10-01T22:57:37.121Z,54443.56
2022-10-01T23:00:07.705Z,54443.56
2022-10-01T23:02:41.120Z,54439.59
2022-10-01T23:05:22.582Z,54445.56
2022-10-01T23:07:59.382Z,54435.59
2022-10-01T23:10:36.542Z,54477.38
2022-10-01T23:13:16.578Z,54493.28
2022-10-01T23:15:52.013Z,54493.28
2022-10-01T23:18:31.830Z,54548.97
2022-10-01T23:21:16.615Z,54568.84
2022-10-01T23:24:00.704Z,54620.56
2022-10-01T23:26:41.897Z,54666.28
2022-10-01T23:29:24.135Z,54694.13
2022-10-01T23:32:03.925Z,54714.03
2022-10-01T23:34:43.795Z,54755.78
2022-10-01T23:37:41.044Z,54795.56
2022-10-01T23:40:14.299Z,54849.25
2022-10-01T23:42:51.971Z,54831.38
2022-10-01T23:45:26.647Z,54938.75
2022-10-01T23:48:03.916Z,54950.69
2022-10-01T23:50:36.390Z,55032.25
2022-10-01T23:53:14.434Z,55058.09
2022-10-01T23:56:06.582Z,55143.63
2022-10-01T23:58:44.890Z,55235.13
